Time;durP1;ratioP1;P1;durP2;ratioP2;P2;SDS_P1;SDS_P2;PMS_P1;PMS_P2;Temp;Humidity;BMP_temperature;BMP_pressure;BME280_temperature;BME280_humidity;BME280_pressure;Samples;Min_cycle;Max_cycle;Signal;HPM_P1;HPM_P2
2022/04/18 00:01:16;;;;;;;4.68;2.72;;;;;;;3.55;81.52;99390.81;6151301;23;20025;-89
2022/04/18 00:03:43;;;;;;;4.43;2.30;;;;;;;3.59;81.16;99410.25;6149757;23;20048;-89
2022/04/18 00:06:09;;;;;;;10.13;2.80;;;;;;;3.56;81.51;99407.81;6150052;23;20331;-89
2022/04/18 00:08:37;;;;;;;3.90;2.40;;;;;;;3.48;80.86;99389.69;6150738;23;20057;-90
2022/04/18 00:11:06;;;;;;;5.30;2.42;;;;;;;3.33;81.71;99375.75;6147412;23;20084;-90
2022/04/18 00:13:32;;;;;;;4.10;2.63;;;;;;;3.40;81.57;99384.09;6145916;23;20101;-90
2022/04/18 00:16:05;;;;;;;11.15;7.18;;;;;;;3.18;82.51;99369.88;6150676;23;20132;-90
2022/04/18 00:18:37;;;;;;;4.53;2.55;;;;;;;3.21;82.89;99398.28;6151246;23;20037;-90
2022/04/18 00:21:06;;;;;;;5.25;2.45;;;;;;;2.98;83.02;99383.16;6151619;23;20047;-90
2022/04/18 00:23:36;;;;;;;4.30;2.42;;;;;;;3.05;83.66;99390.69;6151973;23;20014;-90
2022/04/18 00:26:03;;;;;;;3.90;1.88;;;;;;;2.96;83.86;99385.13;6154185;23;20460;-90
2022/04/18 00:28:30;;;;;;;4.50;2.17;;;;;;;2.79;84.91;99380.34;6153720;23;20025;-90
2022/04/18 00:30:58;;;;;;;2.85;2.20;;;;;;;2.77;85.65;99383.16;6152717;23;20022;-90
2022/04/18 00:33:28;;;;;;;2.03;1.55;;;;;;;2.61;86.71;99386.28;6152637;23;20024;-89
2022/04/18 00:35:55;;;;;;;2.72;2.17;;;;;;;2.58;86.45;99383.84;6153116;23;20024;-89
2022/04/18 00:38:23;;;;;;;2.25;1.60;;;;;;;2.74;87.36;99386.09;6154730;23;20022;-89
2022/04/18 00:40:50;;;;;;;2.97;1.73;;;;;;;2.54;86.91;99360.91;6155286;23;20035;-90
2022/04/18 00:43:17;;;;;;;3.00;2.15;;;;;;;2.64;87.40;99382.50;6153268;23;20028;-89
2022/04/18 00:45:45;;;;;;;4.10;2.38;;;;;;;2.63;88.31;99375.41;6154362;23;20068;-90
2022/04/18 00:48:12;;;;;;;4.07;2.05;;;;;;;2.72;87.79;99380.00;6154255;23;20013;-89
2022/04/18 00:50:43;;;;;;;5.53;2.40;;;;;;;2.57;87.74;99365.19;6154658;23;20559;-89
2022/04/18 00:53:10;;;;;;;3.83;2.53;;;;;;;2.58;87.88;99375.78;6154118;23;20017;-89
2022/04/18 00:55:37;;;;;;;4.50;2.20;;;;;;;2.41;87.09;99352.19;6154959;23;20097;-89
2022/04/18 00:58:05;;;;;;;7.28;2.50;;;;;;;2.30;88.80;99347.72;6154559;23;20014;-89
2022/04/18 01:00:31;;;;;;;6.38;3.28;;;;;;;2.32;89.94;99369.94;6154878;23;20178;-89
2022/04/18 01:02:58;;;;;;;4.32;2.50;;;;;;;2.14;89.59;99353.53;6153168;23;20018;-89
2022/04/18 01:05:27;;;;;;;4.20;2.30;;;;;;;2.02;90.40;99341.09;6154445;23;20080;-89
2022/04/18 01:07:56;;;;;;;5.47;2.42;;;;;;;2.11;89.27;99354.63;6151118;23;20100;-89
2022/04/18 01:10:26;;;;;;;3.28;2.25;;;;;;;1.95;90.84;99341.59;6152012;23;20088;-89
2022/04/18 01:12:53;;;;;;;3.70;2.50;;;;;;;2.07;91.71;99357.69;6153911;23;20021;-89
2022/04/18 01:15:19;;;;;;;3.88;2.65;;;;;;;2.10;90.55;99362.78;6154222;23;20509;-89
2022/04/18 01:17:46;;;;;;;5.60;2.42;;;;;;;2.04;90.26;99342.69;6154505;23;20100;-89
2022/04/18 01:20:13;;;;;;;3.65;2.83;;;;;;;2.07;90.14;99333.53;6153291;23;20100;-89
2022/04/18 01:22:44;;;;;;;3.92;2.53;;;;;;;2.09;89.28;99340.50;6152755;23;20104;-89
2022/04/18 01:30:47;;;;;;;5.03;2.45;;;;;;;2.07;89.54;99338.91;6117691;23;20033;-89
2022/04/18 01:33:14;;;;;;;3.85;2.00;;;;;;;1.91;91.22;99334.81;6169079;23;20037;-88
2022/04/18 01:35:41;;;;;;;5.00;2.55;;;;;;;1.82;92.50;99340.06;6176039;23;20054;-89
2022/04/18 01:38:09;;;;;;;2.67;2.40;;;;;;;1.69;93.08;99332.19;6175545;23;20035;-87
2022/04/18 01:40:36;;;;;;;3.90;2.40;;;;;;;1.71;93.51;99339.09;6158708;23;20076;-89
2022/04/18 01:43:03;;;;;;;4.70;2.90;;;;;;;1.67;92.58;99332.31;6156766;23;20022;-89
2022/04/18 01:45:32;;;;;;;4.13;2.38;;;;;;;1.68;92.55;99331.31;6154009;23;20024;-89
2022/04/18 01:48:01;;;;;;;3.05;2.50;;;;;;;1.79;90.23;99330.44;6153945;23;20048;-89
2022/04/18 01:50:28;;;;;;;10.02;3.10;;;;;;;1.77;91.21;99324.34;6154394;23;20036;-88
2022/04/18 01:52:55;;;;;;;2.92;2.53;;;;;;;1.73;91.25;99313.03;6153306;23;20021;-88
2022/04/18 01:55:24;;;;;;;5.80;2.50;;;;;;;1.82;89.49;99310.56;6153164;23;20458;-89
2022/04/18 01:57:50;;;;;;;5.60;2.38;;;;;;;1.88;90.30;99323.47;6154168;23;20109;-88
2022/04/18 02:00:17;;;;;;;3.67;2.13;;;;;;;1.84;90.73;99304.09;6153509;23;20029;-88
2022/04/18 02:02:44;;;;;;;4.07;2.75;;;;;;;1.87;91.17;99317.25;6152533;23;20040;-88
2022/04/18 02:05:11;;;;;;;5.93;2.53;;;;;;;1.80;90.42;99308.00;6153748;23;20044;-88
2022/04/18 02:07:38;;;;;;;3.28;2.25;;;;;;;1.90;91.47;99337.63;6154366;23;20028;-88
2022/04/18 02:10:05;;;;;;;3.50;2.42;;;;;;;1.91;91.65;99328.56;6154583;23;20501;-88
2022/04/18 02:12:34;;;;;;;7.35;3.00;;;;;;;1.87;91.56;99316.41;6153791;23;20018;-88
2022/04/18 02:15:01;;;;;;;3.13;2.30;;;;;;;1.83;92.70;99321.16;6151924;23;20056;-88
2022/04/18 02:17:28;;;;;;;4.88;2.13;;;;;;;1.68;93.96;99303.66;6151917;23;20041;-89
2022/04/18 02:19:54;;;;;;;3.33;2.53;;;;;;;1.58;93.13;99306.22;6154387;23;20025;-89
2022/04/18 02:22:23;;;;;;;3.70;3.00;;;;;;;1.49;94.59;99302.47;6151314;23;20533;-89
2022/04/18 02:24:50;;;;;;;2.40;2.20;;;;;;;1.58;91.37;99316.94;6153962;23;20093;-88
2022/04/18 02:27:17;;;;;;;3.75;2.55;;;;;;;1.59;88.66;99291.84;6151982;23;20036;-88
2022/04/18 02:29:45;;;;;;;4.80;2.63;;;;;;;1.66;84.73;99278.81;6153475;23;20022;-88
2022/04/18 02:35:01;;;;;;;4.28;2.15;;;;;;;2.02;79.47;99285.66;6154662;23;20044;-88
2022/04/18 02:37:28;;;;;;;4.15;2.35;;;;;;;2.25;78.42;99301.66;6151895;23;20021;-89
2022/04/18 02:39:59;;;;;;;3.58;2.20;;;;;;;2.33;77.74;99306.38;6153032;23;20081;-88
2022/04/18 02:42:25;;;;;;;5.82;2.72;;;;;;;2.30;75.76;99264.56;6152677;23;20373;-88
2022/04/18 02:44:53;;;;;;;3.80;2.25;;;;;;;2.39;75.96;99276.34;6154235;23;20024;-88
2022/04/18 02:47:20;;;;;;;2.58;2.30;;;;;;;2.45;75.72;99284.75;6153015;23;20044;-88
2022/04/18 02:49:47;;;;;;;3.60;2.45;;;;;;;2.44;75.74;99283.03;6154455;23;20025;-88
2022/04/18 02:52:15;;;;;;;3.72;2.10;;;;;;;2.37;74.63;99264.91;6152398;23;20125;-88
2022/04/18 02:54:42;;;;;;;3.25;2.33;;;;;;;2.32;74.10;99251.00;6152388;23;20014;-88
2022/04/18 02:57:08;;;;;;;2.97;2.20;;;;;;;2.46;72.12;99262.28;6152843;23;20028;-88
2022/04/18 02:59:35;;;;;;;3.40;2.15;;;;;;;2.58;70.29;99255.00;6153303;23;20048;-88
2022/04/18 03:02:06;;;;;;;2.80;2.13;;;;;;;2.80;69.97;99277.31;6151195;23;20057;-88
2022/04/18 03:04:33;;;;;;;4.53;2.40;;;;;;;2.71;71.05;99254.81;6153520;23;20021;-87
2022/04/18 03:07:01;;;;;;;4.47;2.28;;;;;;;2.82;71.82;99276.19;6152892;23;20021;-88
2022/04/18 03:09:28;;;;;;;4.38;2.05;;;;;;;2.81;72.53;99290.59;6154487;23;20028;-88
2022/04/18 03:11:56;;;;;;;34.08;2.90;;;;;;;2.77;72.05;99273.09;6151607;23;20362;-89
2022/04/18 03:14:23;;;;;;;2.80;1.92;;;;;;;2.80;72.26;99285.38;6153523;23;20017;-89
2022/04/18 03:16:50;;;;;;;3.00;2.17;;;;;;;2.69;72.67;99275.56;6151383;23;20100;-88
2022/04/18 03:19:18;;;;;;;4.20;2.15;;;;;;;2.67;73.46;99280.22;6153695;23;20017;-89
2022/04/18 03:21:45;;;;;;;3.85;2.53;;;;;;;2.55;73.68;99263.31;6152762;23;20017;-88
2022/04/18 03:24:13;;;;;;;3.67;2.60;;;;;;;2.57;71.82;99264.03;6152743;23;20029;-88
2022/04/18 03:26:40;;;;;;;2.78;2.13;;;;;;;2.55;72.92;99274.06;6152103;23;20064;-88
2022/04/18 03:29:07;;;;;;;3.22;2.40;;;;;;;2.43;75.83;99261.69;6152753;23;20025;-88
2022/04/18 03:31:36;;;;;;;3.60;2.35;;;;;;;2.38;76.77;99277.31;6152036;23;20070;-88
2022/04/18 03:34:04;;;;;;;3.97;2.17;;;;;;;2.25;77.70;99264.94;6152772;23;20021;-88
2022/04/18 03:42:00;;;;;;;2.80;2.30;;;;;;;1.86;81.99;99261.94;6152935;23;20481;-88
2022/04/18 03:44:27;;;;;;;4.20;3.00;;;;;;;1.72;82.33;99241.63;6150203;23;20018;-88
2022/04/18 03:46:56;;;;;;;5.03;2.95;;;;;;;1.61;84.14;99249.69;6153599;23;20033;-88
2022/04/18 03:49:23;;;;;;;4.70;2.25;;;;;;;1.59;83.16;99238.25;6153676;23;20088;-88
2022/04/18 03:51:51;;;;;;;5.22;2.15;;;;;;;1.56;81.35;99227.78;6152741;23;20505;-88
2022/04/18 03:54:18;;;;;;;3.78;2.47;;;;;;;1.78;79.99;99248.31;6152551;23;20454;-88
2022/04/18 03:56:44;;;;;;;4.57;3.05;;;;;;;1.82;77.53;99244.38;6152442;23;20017;-89
2022/04/18 03:59:11;;;;;;;3.13;2.83;;;;;;;1.91;76.94;99240.97;6152837;23;20021;-88
2022/04/18 04:01:38;;;;;;;7.38;2.65;;;;;;;1.96;75.49;99240.59;6152732;23;20028;-87
2022/04/18 04:04:05;;;;;;;6.47;2.88;;;;;;;2.15;76.10;99249.75;6151853;23;20034;-87
2022/04/18 04:06:31;;;;;;;3.08;2.10;;;;;;;2.19;74.51;99243.16;6152820;23;20116;-88
2022/04/18 04:08:59;;;;;;;5.00;3.88;;;;;;;2.23;73.15;99226.69;6152078;23;20476;-88
2022/04/18 04:11:26;;;;;;;2.45;2.17;;;;;;;2.30;72.99;99240.41;6153047;23;20096;-86
2022/04/18 04:13:53;;;;;;;5.65;2.88;;;;;;;2.26;72.73;99228.25;6150964;23;20447;-88
2022/04/18 04:16:20;;;;;;;8.55;3.50;;;;;;;2.27;73.65;99216.53;6152341;23;20029;-87
2022/04/18 04:18:47;;;;;;;5.38;3.10;;;;;;;2.36;72.67;99225.63;6152717;23;20046;-88
2022/04/18 04:21:14;;;;;;;4.55;2.78;;;;;;;2.47;72.64;99249.72;6152651;23;20391;-88
2022/04/18 04:23:40;;;;;;;4.60;2.85;;;;;;;2.44;71.54;99241.94;6151265;23;20096;-87
2022/04/18 04:26:08;;;;;;;4.70;2.40;;;;;;;2.43;71.41;99232.19;6152925;23;20088;-88
2022/04/18 04:28:35;;;;;;;3.80;2.65;;;;;;;2.33;76.39;99232.09;6153325;23;20024;-88
2022/04/18 04:31:04;;;;;;;5.40;2.40;;;;;;;2.38;77.12;99251.34;6153171;23;20116;-88
2022/04/18 04:33:31;;;;;;;7.30;3.03;;;;;;;1.91;84.49;99245.47;6151438;23;20096;-89
2022/04/18 04:35:58;;;;;;;4.00;3.05;;;;;;;1.86;87.94;99250.38;6149492;23;20108;-89
2022/04/18 04:38:25;;;;;;;4.05;2.80;;;;;;;1.69;88.34;99241.88;6152836;23;20018;-88
2022/04/18 04:40:53;;;;;;;4.55;3.25;;;;;;;1.62;89.82;99235.31;6152051;23;20021;-89
2022/04/18 04:43:21;;;;;;;4.18;2.67;;;;;;;1.56;89.42;99242.03;6152540;23;20021;-89
2022/04/18 04:45:48;;;;;;;4.53;2.97;;;;;;;1.54;88.91;99235.97;6152582;23;20096;-88
2022/04/18 04:48:18;;;;;;;4.72;3.00;;;;;;;1.67;87.68;99242.97;6152152;23;20076;-88
2022/04/18 04:50:45;;;;;;;4.93;3.17;;;;;;;1.62;87.73;99242.53;6152443;23;20021;-88
2022/04/18 04:53:13;;;;;;;6.13;3.30;;;;;;;1.64;88.26;99252.16;6152136;23;20040;-88
2022/04/18 04:55:41;;;;;;;4.32;2.92;;;;;;;1.37;87.90;99229.31;6151339;23;20022;-88
2022/04/18 04:58:09;;;;;;;5.93;2.63;;;;;;;1.47;89.35;99240.09;6152318;23;20365;-88
2022/04/18 05:00:39;;;;;;;5.63;3.10;;;;;;;1.53;90.45;99258.34;6152877;23;20013;-88
2022/04/18 05:03:06;;;;;;;;;;;;;;;1.64;90.63;99251.28;6152575;23;20084;-88
2022/04/18 05:05:33;;;;;;;7.65;2.90;;;;;;;1.48;91.17;99232.94;6153508;23;19922;-88
2022/04/18 05:08:00;;;;;;;3.97;3.03;;;;;;;1.56;91.31;99247.38;6151110;23;20021;-88
2022/04/18 05:10:26;;;;;;;4.28;2.80;;;;;;;1.63;91.99;99249.59;6149581;23;20020;-88
2022/04/18 05:12:55;;;;;;;5.72;3.17;;;;;;;1.67;91.28;99246.53;6149563;23;20017;-88
2022/04/18 05:15:22;;;;;;;6.38;3.25;;;;;;;1.72;92.58;99247.00;6153143;23;20018;-83
2022/04/18 05:17:50;;;;;;;3.63;2.78;;;;;;;1.70;90.49;99243.59;6150352;23;20041;-89
2022/04/18 05:20:17;;;;;;;4.22;3.05;;;;;;;1.85;91.12;99262.06;6153336;23;20025;-88
2022/04/18 05:22:46;;;;;;;6.85;3.53;;;;;;;1.78;91.14;99240.28;6155163;23;20033;-88
2022/04/18 05:25:13;;;;;;;5.43;3.10;;;;;;;1.76;95.06;99240.41;6153684;23;20018;-87
2022/04/18 05:27:40;;;;;;;5.55;3.20;;;;;;;1.79;92.70;99246.47;6150909;23;20032;-89
2022/04/18 05:30:08;;;;;;;3.80;3.33;;;;;;;1.86;91.88;99239.66;6152388;23;20109;-89
2022/04/18 05:32:35;;;;;;;4.47;3.10;;;;;;;1.96;92.03;99251.31;6151935;23;20595;-89
2022/04/18 05:35:09;;;;;;;4.55;2.85;;;;;;;2.19;89.52;99243.16;6154634;23;20014;-89
2022/04/18 05:37:36;;;;;;;3.92;3.17;;;;;;;2.59;86.03;99237.06;6153793;23;20033;-89
2022/04/18 05:40:03;;;;;;;4.03;2.95;;;;;;;3.00;83.53;99244.22;6153121;23;20052;-89
2022/04/18 05:42:30;;;;;;;3.50;2.78;;;;;;;3.19;81.52;99223.78;6155103;23;20020;-89
2022/04/18 05:45:00;;;;;;;4.40;3.08;;;;;;;3.59;79.59;99227.44;6156217;23;20401;-89
2022/04/18 05:47:26;;;;;;;4.20;3.55;;;;;;;3.93;78.92;99246.72;6155285;23;20097;-88
2022/04/18 05:49:56;;;;;;;4.60;3.58;;;;;;;3.92;76.78;99247.72;6156168;23;20048;-90
2022/04/18 05:52:24;;;;;;;4.35;2.60;;;;;;;4.29;73.99;99238.06;6155106;23;20025;-89
2022/04/18 05:54:53;;;;;;;24.23;7.00;;;;;;;4.82;71.63;99232.19;6156623;23;20020;-88
2022/04/18 05:57:22;;;;;;;33.47;11.13;;;;;;;5.47;70.84;99229.47;6156515;23;20040;-90
2022/04/18 05:59:52;;;;;;;87.25;21.35;;;;;;;6.05;67.93;99245.47;6155894;23;20018;-90
2022/04/18 06:02:21;;;;;;;102.80;26.75;;;;;;;6.27;65.40;99236.06;6156342;23;20017;-90
2022/04/18 06:04:50;;;;;;;104.63;28.55;;;;;;;6.30;63.70;99223.09;6156125;23;20080;-90
2022/04/18 06:07:19;;;;;;;17.23;6.15;;;;;;;6.46;61.97;99251.22;6156478;23;20028;-90
2022/04/18 06:09:51;;;;;;;5.03;3.23;;;;;;;6.62;61.80;99251.34;6156524;23;20024;-89
2022/04/18 06:12:20;;;;;;;7.43;3.72;;;;;;;6.90;60.99;99226.91;6156804;23;20284;-90
2022/04/18 06:14:47;;;;;;;4.88;2.78;;;;;;;7.21;59.60;99231.78;6155572;23;20014;-90
2022/04/18 06:17:16;;;;;;;5.40;2.95;;;;;;;7.84;57.30;99229.63;6157008;23;20017;-91
2022/04/18 06:19:43;;;;;;;4.25;2.60;;;;;;;8.33;54.92;99221.59;6152231;23;20024;-90
2022/04/18 06:22:11;;;;;;;5.90;2.58;;;;;;;8.72;53.66;99229.03;6150902;23;20058;-89
2022/04/18 06:24:40;;;;;;;5.25;2.53;;;;;;;8.62;54.46;99229.22;6156090;23;20436;-91
2022/04/18 06:27:16;;;;;;;4.05;2.42;;;;;;;8.56;54.36;99231.78;6154308;23;20205;-86
2022/04/18 06:29:47;;;;;;;6.82;2.95;;;;;;;8.91;53.15;99210.69;6172405;23;20024;-92
2022/04/18 06:35:41;;;;;;;4.43;2.80;;;;;;;9.65;51.83;99226.69;6179030;23;20057;-93
2022/04/18 06:38:12;;;;;;;5.35;2.40;;;;;;;9.37;52.54;99210.91;6173208;23;20464;-92
2022/04/18 06:41:08;;;;;;;;;;;;;;;;;;;;;
2022/04/18 06:43:59;;;;;;;4.15;2.33;;;;;;;9.60;51.22;99208.25;6154439;23;20126;-93
2022/04/18 06:46:31;;;;;;;4.55;2.60;;;;;;;9.88;51.09;99210.47;6156892;23;20454;-92
2022/04/18 06:49:10;;;;;;;5.07;2.90;;;;;;;9.99;50.36;99211.94;6164356;23;20024;-93
2022/04/18 06:52:06;;;;;;;4.70;2.75;;;;;;;10.44;49.08;99221.97;6172573;23;20186;-89
2022/04/18 07:15:01;;;;;;;;;;;;;;;;;;;;;
2022/04/18 07:17:39;;;;;;;4.78;2.58;;;;;;;11.03;47.30;99219.56;5917870;24;20024;-92
2022/04/18 07:23:35;;;;;;;6.22;2.78;;;;;;;11.41;45.44;99181.34;6027342;23;20110;-92
2022/04/18 07:26:41;;;;;;;5.97;2.72;;;;;;;11.36;46.58;99200.97;6139800;23;20338;-93
2022/04/18 07:30:13;;;;;;;5.10;2.60;;;;;;;11.13;47.18;99206.53;6140469;23;20029;-93
2022/04/18 07:33:20;;;;;;;3.80;2.33;;;;;;;11.04;47.63;99216.66;6008781;23;20047;-92
2022/04/18 07:36:10;;;;;;;3.80;2.47;;;;;;;11.18;47.00;99195.06;6093047;23;20018;-92
2022/04/18 07:42:12;;;;;;;4.20;2.55;;;;;;;11.70;46.66;99218.59;6157796;23;20036;-93
2022/04/18 07:45:06;;;;;;;4.18;2.30;;;;;;;11.73;46.50;99209.16;6156911;23;20096;-93
2022/04/18 07:48:01;;;;;;;4.75;2.20;;;;;;;11.48;47.08;99201.34;6155160;23;20027;-94
2022/04/18 07:53:55;;;;;;;4.50;2.17;;;;;;;11.11;44.54;99214.00;6156909;23;20076;-94
2022/04/18 07:59:47;;;;;;;6.03;2.40;;;;;;;11.20;46.74;99201.16;6130641;23;20466;-95
2022/04/18 08:03:10;;;;;;;4.20;2.40;;;;;;;11.27;47.13;99191.22;6156815;23;20458;-95
2022/04/18 08:40:46;;;;;;;4.28;2.30;;;;;;;12.56;42.63;99212.38;6241491;22;20746;-87
2022/04/18 08:43:13;;;;;;;2.80;1.80;;;;;;;12.34;42.66;99215.09;6245586;23;20377;-85
2022/04/18 09:10:15;;;;;;;;;;;;;;;;;;;;;
2022/04/18 09:16:31;;;;;;;4.90;2.20;;;;;;;12.88;41.99;99174.63;6031683;23;20120;-92
2022/04/18 09:19:16;;;;;;;3.65;2.00;;;;;;;13.04;41.04;99168.84;6097992;23;20018;-93
2022/04/18 09:28:51;;;;;;;6.78;2.55;;;;;;;12.65;36.71;99162.09;6158155;23;20159;-93
2022/04/18 09:48:27;;;;;;;;;;;;;;;;;;;;;
2022/04/18 12:08:59;;;;;;;3.80;1.70;;;;;;;17.47;31.29;99008.03;6207306;22;20008;-94
2022/04/18 12:11:54;;;;;;;6.35;1.70;;;;;;;17.15;28.27;99012.94;6210774;23;20020;-95
2022/04/18 12:14:39;;;;;;;3.78;1.70;;;;;;;17.05;28.19;99013.47;6206788;23;20027;-93
2022/04/18 12:33:47;;;;;;;4.28;1.80;;;;;;;17.16;27.46;98965.16;6216157;22;20019;-93
2022/04/18 12:36:37;;;;;;;3.67;1.50;;;;;;;17.41;31.40;98980.66;6252829;23;20050;-93
2022/04/18 13:00:33;;;;;;;2.40;1.40;;;;;;;17.69;28.03;98953.34;6222232;23;20025;-95
2022/04/18 13:03:24;;;;;;;1.85;1.27;;;;;;;17.39;28.32;98936.94;6221290;23;20378;-93
2022/04/18 15:33:19;;;;;;;2.05;1.00;;;;;;;18.91;28.53;98790.34;6188039;22;20055;-83
2022/04/18 15:35:46;;;;;;;3.30;1.70;;;;;;;19.25;29.78;98801.38;6211298;23;20012;-83
2022/04/18 15:38:12;;;;;;;2.45;1.17;;;;;;;18.76;28.24;98790.88;6214501;23;20016;-83
2022/04/18 15:40:44;;;;;;;2.80;1.50;;;;;;;18.55;28.01;98787.72;6214607;23;20045;-84
2022/04/18 15:43:11;;;;;;;1.25;1.02;;;;;;;18.50;27.57;98817.06;6214187;23;20067;-83
2022/04/18 15:45:37;;;;;;;2.92;1.27;;;;;;;18.48;28.02;98805.47;6202097;23;20378;-84
2022/04/18 15:48:12;;;;;;;2.45;1.20;;;;;;;18.77;28.09;98781.50;6183041;23;20040;-81
2022/04/18 15:50:40;;;;;;;1.08;0.77;;;;;;;18.94;28.52;98809.13;6183732;23;20431;-83
2022/04/18 15:53:08;;;;;;;4.57;0.90;;;;;;;18.20;29.54;98779.59;6181547;23;20421;-84
2022/04/18 15:55:37;;;;;;;1.40;0.93;;;;;;;18.28;28.69;98795.75;6180558;23;20041;-83
2022/04/18 15:58:04;;;;;;;2.45;1.33;;;;;;;18.14;28.47;98791.59;6181914;23;20013;-84
2022/04/18 16:00:30;;;;;;;2.58;1.10;;;;;;;18.29;28.39;98786.41;6182041;23;20025;-83
2022/04/18 16:02:57;;;;;;;2.15;1.10;;;;;;;17.92;29.20;98783.16;6179558;23;20017;-83
2022/04/18 16:05:24;;;;;;;1.90;1.30;;;;;;;18.06;29.14;98790.06;6181988;23;20390;-83
2022/04/18 16:07:53;;;;;;;3.85;1.27;;;;;;;18.06;29.29;98802.97;6180460;23;20536;-83
2022/04/18 16:10:19;;;;;;;1.95;1.15;;;;;;;17.74;29.30;98798.69;6181229;23;20021;-83
2022/04/18 16:12:46;;;;;;;2.38;1.05;;;;;;;17.73;29.16;98805.25;6179228;23;20052;-84
2022/04/18 16:15:13;;;;;;;1.13;0.73;;;;;;;17.48;29.91;98811.84;6181005;23;20326;-84
2022/04/18 16:17:40;;;;;;;1.70;1.05;;;;;;;17.03;29.83;98784.94;6181346;23;20017;-83
2022/04/18 16:20:10;;;;;;;1.83;1.10;;;;;;;17.02;30.02;98779.69;6180738;23;20072;-83
2022/04/18 16:22:37;;;;;;;3.42;1.20;;;;;;;17.10;30.57;98804.03;6180835;23;20025;-84
2022/04/18 16:25:06;;;;;;;1.25;0.93;;;;;;;17.12;29.78;98808.22;6180985;23;20097;-83
2022/04/18 16:27:32;;;;;;;1.27;1.00;;;;;;;17.05;30.51;98802.00;6181638;23;20053;-83
2022/04/18 16:32:58;;;;;;;4.00;1.77;;;;;;;16.85;31.28;98780.34;6089832;23;20022;-83
2022/04/18 16:35:24;;;;;;;1.05;0.85;;;;;;;16.98;30.97;98807.63;6116644;23;20029;-83
2022/04/18 16:37:51;;;;;;;5.43;1.60;;;;;;;16.57;31.79;98790.03;6158500;23;20017;-84
2022/04/18 16:40:19;;;;;;;3.20;1.42;;;;;;;16.62;32.79;98789.34;6211895;23;20017;-83
2022/04/18 16:48:14;;;;;;;2.47;1.35;;;;;;;15.97;33.11;98774.34;6211148;23;20503;-83
2022/04/18 16:50:41;;;;;;;2.28;1.20;;;;;;;15.96;33.25;98758.13;6210995;23;20040;-83
2022/04/18 16:53:08;;;;;;;3.30;1.30;;;;;;;15.89;33.25;98789.22;6208894;23;20040;-84
2022/04/18 16:55:36;;;;;;;1.88;1.00;;;;;;;15.66;33.72;98758.91;6210613;23;20023;-83
2022/04/18 16:58:05;;;;;;;6.00;1.17;;;;;;;15.71;33.33;98784.53;6210782;23;20247;-84
2022/04/18 17:00:31;;;;;;;2.90;1.05;;;;;;;15.43;33.88;98743.97;6210530;23;20013;-83
2022/04/18 17:03:01;;;;;;;7.35;1.20;;;;;;;15.53;34.16;98785.34;6210703;23;20024;-83
2022/04/18 17:05:28;;;;;;;2.45;1.00;;;;;;;15.43;33.51;98756.81;6208855;23;20021;-83
2022/04/18 17:07:55;;;;;;;1.98;1.20;;;;;;;15.46;34.26;98787.34;6209080;23;20120;-84
2022/04/18 17:10:21;;;;;;;3.20;1.92;;;;;;;15.61;34.78;98792.47;6210588;23;20032;-83
2022/04/18 17:12:49;;;;;;;2.45;1.40;;;;;;;15.42;34.57;98771.59;6209402;23;20103;-83
2022/04/18 17:15:16;;;;;;;6.60;1.30;;;;;;;15.36;33.86;98779.63;6210570;23;20044;-83
2022/04/18 17:17:43;;;;;;;1.77;1.20;;;;;;;15.41;34.22;98795.38;6213633;23;20090;-84
2022/04/18 17:20:10;;;;;;;2.38;1.05;;;;;;;15.33;34.08;98782.00;6212606;23;20031;-83
2022/04/18 17:22:38;;;;;;;2.72;1.13;;;;;;;15.31;33.80;98784.09;6212876;23;20070;-84
2022/04/18 17:25:06;;;;;;;4.55;0.93;;;;;;;15.11;33.71;98768.69;6212052;23;20102;-83
2022/04/18 17:27:34;;;;;;;2.25;1.13;;;;;;;15.06;34.60;98754.03;6210814;23;20020;-84
2022/04/18 17:30:02;;;;;;;8.07;2.55;;;;;;;15.26;34.88;98795.75;6216525;23;20032;-83
2022/04/18 17:32:29;;;;;;;4.85;1.63;;;;;;;15.13;34.60;98782.16;6212415;23;20411;-82
2022/04/18 17:34:58;;;;;;;1.85;1.20;;;;;;;14.97;34.52;98765.25;6213125;23;20048;-83
2022/04/18 17:37:25;;;;;;;1.63;0.90;;;;;;;14.86;34.88;98768.72;6205011;23;20460;-82
2022/04/18 17:39:51;;;;;;;3.28;1.50;;;;;;;14.99;36.61;98792.38;6207969;23;20024;-82
2022/04/18 17:42:18;;;;;;;2.83;1.20;;;;;;;14.66;36.59;98764.22;6209929;23;20059;-82
2022/04/18 17:44:46;;;;;;;3.15;1.17;;;;;;;14.50;35.46;98759.25;6209571;23;20091;-82
2022/04/18 17:47:14;;;;;;;1.73;0.90;;;;;;;14.50;36.42;98771.03;6208645;23;20017;-82
2022/04/18 17:49:40;;;;;;;2.95;1.15;;;;;;;14.56;37.39;98795.81;6208710;23;20413;-82
2022/04/18 17:52:07;;;;;;;1.63;0.80;;;;;;;14.26;37.11;98763.59;6207339;23;20091;-82
2022/04/18 17:57:18;;;;;;;2.47;1.42;;;;;;;14.23;37.53;98796.84;6209800;23;20463;-82
2022/04/18 17:59:44;;;;;;;1.10;1.00;;;;;;;14.04;37.46;98774.00;6210783;23;20083;-82
2022/04/18 18:02:11;;;;;;;2.53;1.50;;;;;;;14.09;38.37;98807.84;6208709;23;20017;-83
2022/04/18 18:04:39;;;;;;;1.40;1.15;;;;;;;13.87;39.19;98788.16;6209003;23;20212;-82
2022/04/18 18:07:06;;;;;;;4.63;1.30;;;;;;;13.68;39.46;98775.41;6209449;23;20013;-83
2022/04/18 18:09:33;;;;;;;2.03;1.00;;;;;;;13.59;41.14;98797.50;6210369;23;20071;-83
2022/04/18 18:12:00;;;;;;;1.52;0.90;;;;;;;13.43;41.43;98789.75;6208653;23;20043;-83
2022/04/18 18:14:26;;;;;;;2.50;1.20;;;;;;;13.30;42.80;98808.84;6209724;23;20448;-83
2022/04/18 18:16:53;;;;;;;1.55;1.02;;;;;;;13.06;43.44;98795.59;6209374;23;20016;-82
2022/04/18 18:19:20;;;;;;;2.40;1.08;;;;;;;12.81;43.64;98784.50;6210360;23;20027;-83
2022/04/18 18:21:52;;;;;;;4.32;1.73;;;;;;;12.86;44.96;98811.16;6208780;23;20021;-83
2022/04/18 18:24:19;;;;;;;1.83;1.05;;;;;;;12.66;46.08;98817.41;6208948;23;20445;-83
2022/04/18 18:26:46;;;;;;;2.05;1.00;;;;;;;12.28;45.88;98792.56;6208891;23;20096;-83
2022/04/18 18:29:13;;;;;;;8.32;2.92;;;;;;;12.25;45.42;98799.25;6209478;23;20028;-83
2022/04/18 18:31:39;;;;;;;18.05;5.72;;;;;;;12.29;45.69;98814.16;6209969;23;20075;-82
2022/04/18 18:34:06;;;;;;;6.10;2.33;;;;;;;12.17;45.65;98813.09;6208579;23;20187;-83
2022/04/18 18:36:33;;;;;;;2.88;1.55;;;;;;;12.10;47.12;98832.09;6209752;23;20024;-83
2022/04/18 18:39:01;;;;;;;2.05;1.20;;;;;;;12.09;44.98;98845.94;6208390;23;20036;-83
2022/04/18 18:41:28;;;;;;;4.28;1.48;;;;;;;11.94;44.93;98821.56;6210055;23;20020;-83
2022/04/18 18:43:54;;;;;;;6.07;2.25;;;;;;;11.91;45.14;98830.97;6208683;23;20025;-84
2022/04/18 18:46:21;;;;;;;1.27;1.17;;;;;;;11.60;45.91;98796.84;6209800;23;20099;-83
2022/04/18 18:48:48;;;;;;;5.30;2.08;;;;;;;11.75;45.11;98823.13;6209761;23;20055;-83
2022/04/18 18:53:58;;;;;;;4.85;1.05;;;;;;;11.23;48.11;98804.38;6209105;23;20118;-83
2022/04/18 18:56:26;;;;;;;2.22;1.50;;;;;;;11.30;48.53;98843.31;6208531;23;20536;-83
2022/04/18 18:58:53;;;;;;;3.47;1.35;;;;;;;10.98;48.22;98826.53;6209172;23;20103;-83
2022/04/18 19:01:20;;;;;;;2.22;1.55;;;;;;;10.91;47.97;98806.59;6209588;23;20333;-83
2022/04/18 19:03:47;;;;;;;1.20;0.90;;;;;;;11.02;48.24;98850.63;6207795;23;20052;-83
2022/04/18 19:06:14;;;;;;;1.60;1.05;;;;;;;11.08;48.97;98863.44;6208410;23;20471;-83
2022/04/18 19:08:41;;;;;;;2.55;1.33;;;;;;;10.72;48.80;98823.56;6209973;23;20016;-83
2022/04/18 19:11:07;;;;;;;4.00;2.28;;;;;;;10.52;49.51;98835.06;6209278;23;20075;-83
2022/04/18 19:13:35;;;;;;;1.80;1.20;;;;;;;10.57;49.63;98843.50;6208872;23;20514;-83
2022/04/18 19:16:03;;;;;;;1.70;1.25;;;;;;;10.45;50.79;98840.44;6208645;23;20115;-83
2022/04/18 19:26:47;;;;;;;9.77;3.65;;;;;;;10.15;54.39;98855.97;6124095;23;20547;-83
2022/04/18 19:29:15;;;;;;;10.13;4.95;;;;;;;9.85;54.03;98826.13;6209696;23;20017;-83
2022/04/18 19:31:42;;;;;;;26.15;10.68;;;;;;;10.01;54.78;98863.09;6209684;23;20051;-82
2022/04/18 19:34:10;;;;;;;11.65;5.38;;;;;;;9.96;54.96;98859.25;6207390;23;20452;-83
2022/04/18 19:36:36;;;;;;;13.65;6.47;;;;;;;9.87;55.84;98855.78;6208027;23;20066;-83
2022/04/18 19:39:05;;;;;;;11.45;3.70;;;;;;;9.79;56.32;98864.03;6208672;23;20368;-83
2022/04/18 19:41:32;;;;;;;6.85;3.72;;;;;;;9.68;56.36;98847.19;6209098;23;20021;-83
2022/04/18 19:43:58;;;;;;;3.70;2.25;;;;;;;9.50;58.36;98843.97;6207338;23;20024;-83
2022/04/18 19:46:27;;;;;;;2.53;1.65;;;;;;;9.44;59.51;98856.44;6208604;23;20059;-83
2022/04/18 19:48:57;;;;;;;2.63;1.30;;;;;;;9.13;60.14;98827.56;6211100;23;20036;-81
2022/04/18 19:51:29;;;;;;;2.42;1.33;;;;;;;9.14;60.34;98828.44;6211499;23;20035;-83
2022/04/18 19:53:55;;;;;;;2.30;1.58;;;;;;;9.39;60.46;98845.28;6208271;23;20020;-83
2022/04/18 19:56:22;;;;;;;3.92;1.70;;;;;;;9.08;61.84;98832.72;6182029;23;20044;-83
2022/04/18 19:58:49;;;;;;;2.65;1.63;;;;;;;9.04;61.72;98845.78;6207514;23;20044;-83